Time;durP1;ratioP1;P1;durP2;ratioP2;P2;SDS_P1;SDS_P2;PMS_P1;PMS_P2;Temp;Humidity;BMP_temperature;BMP_pressure;BME280_temperature;BME280_humidity;BME280_pressure;Samples;Min_cycle;Max_cycle;Signal;HPM_P1;HPM_P2
2021/07/25 00:00:45;;;;;;;51.97;27.30;;;15.50;99.90;;;;;;4782852;29;20047;-84
2021/07/25 00:03:12;;;;;;;46.90;25.70;;;15.50;99.90;;;;;;4768295;29;20052;-84
2021/07/25 00:05:41;;;;;;;76.03;27.40;;;15.40;99.90;;;;;;4766426;29;20067;-84
2021/07/25 00:08:14;;;;;;;101.60;27.60;;;15.40;99.90;;;;;;4766110;29;20051;-84
2021/07/25 00:10:46;;;;;;;114.45;28.33;;;15.30;99.90;;;;;;4767884;29;20109;-83
2021/07/25 00:13:16;;;;;;;98.25;27.98;;;15.30;99.90;;;;;;4767716;29;20457;-84
2021/07/25 00:15:44;;;;;;;142.82;28.83;;;15.30;99.90;;;;;;4765214;29;20130;-84
2021/07/25 00:18:11;;;;;;;159.27;31.75;;;15.30;99.90;;;;;;4768262;29;20575;-84
2021/07/25 00:20:39;;;;;;;124.15;29.48;;;15.30;99.90;;;;;;4767745;29;20051;-84
2021/07/25 00:23:07;;;;;;;94.75;29.83;;;15.30;99.90;;;;;;4751369;29;20055;-84
2021/07/25 00:25:35;;;;;;;93.55;29.63;;;15.20;99.90;;;;;;4766718;29;20064;-84
2021/07/25 00:28:02;;;;;;;89.43;28.42;;;15.30;99.90;;;;;;4769253;29;20560;-84
2021/07/25 00:30:29;;;;;;;98.43;29.27;;;15.30;99.90;;;;;;4767321;29;20056;-84
2021/07/25 00:32:56;;;;;;;94.50;27.13;;;15.20;99.90;;;;;;4768671;29;20142;-84
2021/07/25 00:35:23;;;;;;;108.20;28.20;;;15.20;99.90;;;;;;4768528;29;20055;-83
2021/07/25 00:37:52;;;;;;;82.68;27.65;;;15.20;99.90;;;;;;4766323;29;20079;-84
2021/07/25 00:40:41;;;;;;;65.20;28.67;;;15.20;99.90;;;;;;4768508;29;20537;-83
2021/07/25 00:43:08;;;;;;;70.30;28.50;;;15.20;99.90;;;;;;4784573;29;20478;-84
2021/07/25 00:45:35;;;;;;;79.13;30.35;;;15.20;99.90;;;;;;4772000;29;20059;-83
2021/07/25 00:48:03;;;;;;;65.57;29.05;;;15.20;99.90;;;;;;4771893;29;20506;-83
2021/07/25 00:50:30;;;;;;;57.75;27.08;;;15.20;99.90;;;;;;4771586;29;20051;-83
2021/07/25 00:52:57;;;;;;;66.78;28.52;;;15.20;99.90;;;;;;4771967;29;20048;-83
2021/07/25 00:55:27;;;;;;;50.05;25.08;;;15.20;99.90;;;;;;4768374;29;20056;-83
2021/07/25 00:57:54;;;;;;;47.15;23.58;;;15.20;99.90;;;;;;4771970;29;20055;-84
2021/07/25 01:00:21;;;;;;;45.25;23.10;;;15.20;99.90;;;;;;4771054;29;20063;-83
2021/07/25 01:03:18;;;;;;;44.63;22.02;;;15.20;99.90;;;;;;4770700;29;20052;-84
2021/07/25 01:06:10;;;;;;;44.13;20.35;;;15.20;99.90;;;;;;4765752;29;20139;-84
2021/07/25 01:08:53;;;;;;;42.33;21.80;;;15.10;99.90;;;;;;4759354;29;20051;-84
2021/07/25 01:11:21;;;;;;;52.63;21.50;;;15.10;99.90;;;;;;4785035;29;20077;-84
2021/07/25 01:13:54;;;;;;;46.00;21.45;;;15.10;99.90;;;;;;4771647;29;20067;-84
2021/07/25 01:16:21;;;;;;;41.22;21.15;;;15.10;99.90;;;;;;4770005;29;20055;-84
2021/07/25 01:18:50;;;;;;;39.35;19.98;;;15.10;99.90;;;;;;4770807;29;20059;-84
2021/07/25 01:21:19;;;;;;;40.92;19.38;;;15.10;99.90;;;;;;4770580;29;20098;-84
2021/07/25 01:23:47;;;;;;;37.85;19.70;;;15.10;99.90;;;;;;4771246;29;20139;-84
2021/07/25 01:26:20;;;;;;;42.55;18.92;;;15.10;99.90;;;;;;4769804;29;20062;-84
2021/07/25 01:28:49;;;;;;;40.30;19.38;;;15.00;99.90;;;;;;4757592;30;20059;-84
2021/07/25 01:31:20;;;;;;;37.55;19.17;;;15.00;99.90;;;;;;4766491;29;20402;-84
2021/07/25 01:33:48;;;;;;;44.92;19.85;;;15.00;99.90;;;;;;4771356;29;20060;-84
2021/07/25 01:36:16;;;;;;;45.03;20.40;;;15.00;99.90;;;;;;4770796;29;20056;-84
2021/07/25 01:38:43;;;;;;;38.47;19.65;;;14.90;99.90;;;;;;4768510;29;20449;-84
2021/07/25 01:41:12;;;;;;;43.90;19.42;;;14.90;99.90;;;;;;4770518;29;20505;-84
2021/07/25 01:43:46;;;;;;;41.88;19.30;;;14.90;99.90;;;;;;4771158;29;20152;-84
2021/07/25 01:46:13;;;;;;;39.90;18.25;;;14.90;99.90;;;;;;4766336;29;20048;-84
2021/07/25 01:48:42;;;;;;;36.67;18.60;;;14.90;99.90;;;;;;4769724;29;20121;-84
2021/07/25 01:51:11;;;;;;;44.72;19.73;;;14.90;99.90;;;;;;4770389;29;20398;-84
2021/07/25 01:53:38;;;;;;;39.90;18.88;;;14.90;99.90;;;;;;4770495;29;20456;-84
2021/07/25 01:56:05;;;;;;;46.13;19.45;;;14.90;99.90;;;;;;4767958;29;20051;-83
2021/07/25 01:58:33;;;;;;;49.53;19.60;;;14.90;99.90;;;;;;4768585;29;20063;-84
2021/07/25 02:01:00;;;;;;;54.28;21.98;;;14.90;99.90;;;;;;4771121;29;20403;-84
2021/07/25 02:03:30;;;;;;;43.15;20.63;;;14.80;99.90;;;;;;4770022;29;20477;-84
2021/07/25 02:05:57;;;;;;;53.28;21.40;;;14.90;99.90;;;;;;4769522;29;20083;-84
2021/07/25 02:08:24;;;;;;;53.20;21.00;;;14.80;99.90;;;;;;4769881;29;20471;-84
2021/07/25 02:10:52;;;;;;;52.25;21.25;;;14.90;99.90;;;;;;4768273;29;20059;-84
2021/07/25 02:13:22;;;;;;;55.72;22.50;;;14.80;99.90;;;;;;4768966;29;20062;-84
2021/07/25 02:15:51;;;;;;;59.17;21.40;;;14.80;99.90;;;;;;4769772;29;20063;-84
2021/07/25 02:18:18;;;;;;;72.93;22.48;;;14.80;99.90;;;;;;4767373;29;20572;-84
2021/07/25 02:20:47;;;;;;;70.75;22.85;;;14.90;99.90;;;;;;4769200;29;20441;-84
2021/07/25 02:23:14;;;;;;;;;;;14.90;99.90;;;;;;4770172;29;20054;-84
2021/07/25 02:25:41;;;;;;;56.42;22.67;;;14.90;99.90;;;;;;4783878;29;19925;-84
2021/07/25 02:28:11;;;;;;;68.43;23.85;;;14.90;99.90;;;;;;4783899;29;20059;-84
2021/07/25 02:30:38;;;;;;;70.85;24.00;;;14.90;99.90;;;;;;4768808;29;20063;-84
2021/07/25 02:33:06;;;;;;;69.63;25.08;;;14.90;99.90;;;;;;4767116;29;20487;-84
2021/07/25 02:35:33;;;;;;;66.22;26.30;;;15.00;99.90;;;;;;4770073;29;20117;-83
2021/07/25 02:38:00;;;;;;;60.83;25.48;;;15.00;99.90;;;;;;4770103;29;20059;-84
2021/07/25 02:40:28;;;;;;;66.07;26.40;;;15.00;99.90;;;;;;4753766;29;20048;-84
2021/07/25 02:42:55;;;;;;;63.05;26.15;;;15.00;99.90;;;;;;4770182;29;20105;-84
2021/07/25 02:45:22;;;;;;;57.55;24.17;;;15.00;99.90;;;;;;4769381;29;20058;-84
2021/07/25 02:47:49;;;;;;;48.90;23.90;;;15.00;99.90;;;;;;4769995;29;20051;-84
2021/07/25 02:50:16;;;;;;;55.70;24.05;;;15.00;99.90;;;;;;4769507;29;20472;-84
2021/07/25 02:52:43;;;;;;;59.05;25.05;;;15.10;99.90;;;;;;4754737;30;20070;-84
2021/07/25 02:55:11;;;;;;;57.75;23.85;;;15.10;99.90;;;;;;4769852;29;20270;-83
2021/07/25 02:57:38;;;;;;;53.03;24.52;;;15.10;99.90;;;;;;4768606;29;20063;-84
2021/07/25 03:00:05;;;;;;;52.25;25.05;;;15.10;99.90;;;;;;4769654;29;20063;-84
2021/07/25 03:02:32;;;;;;;53.80;24.90;;;15.10;99.90;;;;;;4769178;29;20052;-83
2021/07/25 03:05:00;;;;;;;53.00;25.30;;;15.20;99.90;;;;;;4769297;29;20051;-84
2021/07/25 03:07:27;;;;;;;59.53;24.45;;;15.20;99.90;;;;;;4769365;29;20051;-83
2021/07/25 03:09:55;;;;;;;53.60;24.25;;;15.20;99.90;;;;;;4768238;29;20055;-83
2021/07/25 03:12:22;;;;;;;57.72;25.25;;;15.20;99.90;;;;;;4766357;29;20058;-83
2021/07/25 03:14:49;;;;;;;55.75;24.48;;;15.30;99.90;;;;;;4769457;29;20078;-84
2021/07/25 03:17:16;;;;;;;47.58;23.38;;;15.30;99.90;;;;;;4768906;29;20054;-84
2021/07/25 03:19:43;;;;;;;47.83;24.65;;;15.30;99.90;;;;;;4753968;30;20052;-84
2021/07/25 03:22:10;;;;;;;46.65;24.40;;;15.30;99.90;;;;;;4769431;29;20411;-84
2021/07/25 03:24:38;;;;;;;41.10;22.98;;;15.30;99.90;;;;;;4769397;29;20486;-84
2021/07/25 03:27:05;;;;;;;35.35;22.98;;;15.30;99.90;;;;;;4769027;29;20085;-83
2021/07/25 03:29:32;;;;;;;37.67;23.50;;;15.30;99.90;;;;;;4769206;29;20055;-84
2021/07/25 03:31:59;;;;;;;41.03;24.65;;;15.30;99.90;;;;;;4767102;29;20048;-84
2021/07/25 03:34:31;;;;;;;40.40;25.33;;;15.30;99.90;;;;;;4768694;29;20101;-84
2021/07/25 03:36:59;;;;;;;38.08;23.58;;;15.40;99.90;;;;;;4782009;29;20063;-84
2021/07/25 03:39:26;;;;;;;43.78;25.02;;;15.40;99.90;;;;;;4767429;29;20043;-84
2021/07/25 03:41:53;;;;;;;43.60;25.67;;;15.40;99.90;;;;;;4766705;29;20055;-83
2021/07/25 03:44:21;;;;;;;39.47;25.77;;;15.40;99.90;;;;;;4768704;29;20110;-84
2021/07/25 03:46:48;;;;;;;41.10;24.95;;;15.50;99.90;;;;;;4769404;29;20063;-83
2021/07/25 03:49:15;;;;;;;43.97;25.77;;;15.50;99.90;;;;;;4769169;29;20059;-84
2021/07/25 03:51:42;;;;;;;41.38;24.48;;;15.50;99.90;;;;;;4769148;29;20075;-83
2021/07/25 03:54:09;;;;;;;43.80;26.45;;;15.50;99.90;;;;;;4767531;29;20475;-84
2021/07/25 03:56:37;;;;;;;45.72;27.95;;;15.50;99.90;;;;;;4768929;29;20440;-84
2021/07/25 03:59:04;;;;;;;49.65;27.08;;;15.50;99.90;;;;;;4767595;29;20052;-84
2021/07/25 04:01:31;;;;;;;46.08;27.55;;;15.50;99.90;;;;;;4753338;30;20313;-84
2021/07/25 04:03:59;;;;;;;37.70;24.63;;;15.50;99.90;;;;;;4768300;29;20399;-83
2021/07/25 04:06:26;;;;;;;39.83;24.05;;;15.50;99.90;;;;;;4768426;29;20484;-84
2021/07/25 04:08:53;;;;;;;35.05;24.08;;;15.50;99.90;;;;;;4768854;29;20067;-84
2021/07/25 04:11:21;;;;;;;37.15;24.45;;;15.60;99.90;;;;;;4768550;29;20059;-84
2021/07/25 04:13:48;;;;;;;37.78;23.65;;;15.50;99.90;;;;;;4768030;29;20056;-84
2021/07/25 04:16:16;;;;;;;36.93;25.07;;;15.60;99.90;;;;;;4754303;29;20381;-84
2021/07/25 04:18:43;;;;;;;32.88;24.00;;;15.50;99.90;;;;;;4772448;29;20048;-84
2021/07/25 04:21:11;;;;;;;38.40;24.50;;;15.50;99.90;;;;;;4770528;29;20063;-84
2021/07/25 04:23:39;;;;;;;37.40;24.58;;;15.50;99.90;;;;;;4772148;29;20420;-84
2021/07/25 04:26:07;;;;;;;37.45;24.52;;;15.50;99.90;;;;;;4770838;29;20048;-84
2021/07/25 04:28:35;;;;;;;37.73;24.53;;;15.50;99.90;;;;;;4756615;30;20044;-84
2021/07/25 04:31:02;;;;;;;38.67;24.48;;;15.50;99.90;;;;;;4771606;29;20060;-84
2021/07/25 04:33:30;;;;;;;46.45;26.63;;;15.50;99.90;;;;;;4785381;29;20448;-84
2021/07/25 04:35:58;;;;;;;45.40;26.48;;;15.50;99.90;;;;;;4770589;29;20052;-84
2021/07/25 04:38:25;;;;;;;46.50;26.95;;;15.50;99.90;;;;;;4771530;29;20586;-84
2021/07/25 04:40:59;;;;;;;44.00;26.58;;;15.50;99.90;;;;;;4772292;29;20052;-84
2021/07/25 04:43:30;;;;;;;43.13;25.77;;;15.50;99.90;;;;;;4770495;29;20055;-84
2021/07/25 04:46:28;;;;;;;41.72;25.77;;;15.50;99.90;;;;;;4771330;29;20052;-84
2021/07/25 04:49:12;;;;;;;44.05;25.75;;;15.50;99.90;;;;;;4783622;29;20052;-84
2021/07/25 04:51:40;;;;;;;49.67;26.55;;;15.60;99.90;;;;;;4771235;29;20047;-84
2021/07/25 04:54:11;;;;;;;47.58;27.02;;;15.60;99.90;;;;;;4771268;29;20112;-84
2021/07/25 04:56:44;;;;;;;46.28;27.08;;;15.60;99.90;;;;;;4785419;29;20047;-83
2021/07/25 04:59:18;;;;;;;55.85;28.85;;;15.60;99.90;;;;;;4771285;29;20058;-84
2021/07/25 05:01:50;;;;;;;41.50;27.77;;;15.70;99.90;;;;;;4756522;30;20056;-84
2021/07/25 05:04:22;;;;;;;48.42;28.70;;;15.60;99.90;;;;;;4768274;29;20542;-83
2021/07/25 05:06:49;;;;;;;52.55;29.67;;;15.70;99.90;;;;;;4772041;29;20127;-84
2021/07/25 05:09:17;;;;;;;51.75;29.17;;;15.70;99.90;;;;;;4770737;29;20395;-84
2021/07/25 05:12:16;;;;;;;49.22;30.30;;;15.70;99.90;;;;;;4769013;29;20396;-83
2021/07/25 05:15:04;;;;;;;47.70;29.80;;;15.80;99.90;;;;;;4771059;29;20047;-84
2021/07/25 05:17:55;;;;;;;51.17;30.30;;;15.80;99.90;;;;;;4768639;29;20044;-83
2021/07/25 05:20:43;;;;;;;49.63;29.85;;;15.80;99.90;;;;;;4769980;29;20332;-83
2021/07/25 05:23:20;;;;;;;50.97;28.45;;;15.80;99.90;;;;;;4771878;29;20056;-84
2021/07/25 05:25:53;;;;;;;45.72;28.13;;;15.90;99.90;;;;;;4770321;29;20059;-83
2021/07/25 05:28:21;;;;;;;47.72;28.05;;;15.90;99.90;;;;;;4767505;29;20059;-84
2021/07/25 05:30:53;;;;;;;45.33;28.73;;;15.90;99.90;;;;;;4769566;29;20514;-84
2021/07/25 05:33:21;;;;;;;50.55;28.80;;;15.90;99.90;;;;;;4770718;29;20293;-84
2021/07/25 05:35:48;;;;;;;45.95;27.45;;;15.90;99.90;;;;;;4769961;29;20056;-84
2021/07/25 05:38:16;;;;;;;50.30;28.38;;;15.90;99.90;;;;;;4768402;29;20051;-84
2021/07/25 05:40:44;;;;;;;43.15;26.77;;;15.90;99.90;;;;;;4771347;29;20063;-84
2021/07/25 05:43:11;;;;;;;54.72;30.52;;;16.00;99.90;;;;;;4769747;29;20066;-84
2021/07/25 05:45:38;;;;;;;47.22;29.08;;;16.00;99.90;;;;;;4768431;29;20074;-84
2021/07/25 05:48:05;;;;;;;53.22;29.77;;;16.00;99.90;;;;;;4770293;29;20399;-84
2021/07/25 05:50:32;;;;;;;53.72;30.35;;;16.10;99.90;;;;;;4768411;29;20059;-84
2021/07/25 05:53:00;;;;;;;58.22;30.63;;;16.10;99.90;;;;;;4770724;29;20068;-84
2021/07/25 05:55:30;;;;;;;52.22;29.45;;;16.10;99.90;;;;;;4770342;29;20047;-84
2021/07/25 05:57:57;;;;;;;51.80;29.17;;;16.10;99.90;;;;;;4769321;29;20502;-84
2021/07/25 06:00:25;;;;;;;56.17;30.23;;;16.20;99.90;;;;;;4770096;29;20052;-84
2021/07/25 06:03:02;;;;;;;47.40;30.52;;;16.20;99.90;;;;;;4769632;29;20063;-84
2021/07/25 06:05:31;;;;;;;56.67;31.98;;;16.20;99.90;;;;;;4770374;29;20055;-84
2021/07/25 06:07:59;;;;;;;;;;;16.20;99.90;;;;;;4771277;29;20060;-84
2021/07/25 06:10:28;;;;;;;49.58;29.02;;;16.20;99.90;;;;;;4783485;29;19926;-84
2021/07/25 06:12:56;;;;;;;;;;;16.20;99.90;;;;;;4770037;29;20494;-84
2021/07/25 06:15:24;;;;;;;48.95;29.30;;;16.20;99.90;;;;;;4770303;29;19992;-84
2021/07/25 06:17:51;;;;;;;42.58;28.08;;;16.30;99.90;;;;;;4769509;29;20055;-85
2021/07/25 06:20:19;;;;;;;46.13;27.70;;;16.30;99.90;;;;;;4768854;29;20058;-84
2021/07/25 06:22:49;;;;;;;50.63;28.50;;;16.30;99.90;;;;;;4769359;29;20490;-84
2021/07/25 06:25:20;;;;;;;52.45;30.85;;;16.30;99.90;;;;;;4769413;29;20059;-84
2021/07/25 06:27:52;;;;;;;53.17;31.35;;;16.30;99.90;;;;;;4770456;29;20055;-84
2021/07/25 06:30:20;;;;;;;54.50;31.52;;;16.30;99.90;;;;;;4753064;29;20058;-84
2021/07/25 06:33:01;;;;;;;59.53;32.83;;;16.40;99.90;;;;;;4770278;29;20403;-84
2021/07/25 06:35:33;;;;;;;53.55;31.80;;;16.50;99.90;;;;;;4768528;29;20051;-85
2021/07/25 06:38:06;;;;;;;57.05;33.95;;;16.50;99.90;;;;;;4769263;29;20453;-84
2021/07/25 06:40:33;;;;;;;54.85;31.25;;;16.60;99.90;;;;;;4767627;29;20059;-84
2021/07/25 06:43:02;;;;;;;52.10;32.92;;;16.70;99.90;;;;;;4770404;29;20055;-84
2021/07/25 06:45:30;;;;;;;52.33;32.20;;;16.80;99.90;;;;;;4768611;29;20114;-84
2021/07/25 06:47:57;;;;;;;55.67;31.65;;;16.80;99.90;;;;;;4768530;29;20056;-85
2021/07/25 06:50:27;;;;;;;51.28;32.53;;;16.80;99.90;;;;;;4765632;29;20072;-84
2021/07/25 06:52:56;;;;;;;57.95;34.65;;;16.90;99.90;;;;;;4767214;29;20079;-84
2021/07/25 06:55:26;;;;;;;49.25;31.42;;;16.90;99.90;;;;;;4781743;29;20047;-85
2021/07/25 06:57:53;;;;;;;46.15;30.50;;;16.90;99.90;;;;;;4762043;29;20133;-85
2021/07/25 07:00:20;;;;;;;42.38;29.08;;;16.90;99.90;;;;;;4747510;29;20055;-85
2021/07/25 07:02:53;;;;;;;42.00;28.63;;;16.90;99.90;;;;;;4767771;29;20055;-84
2021/07/25 07:05:22;;;;;;;42.78;27.77;;;16.90;99.90;;;;;;4761733;29;20064;-84
2021/07/25 07:07:51;;;;;;;37.45;26.92;;;16.90;99.90;;;;;;4766806;29;20551;-84
2021/07/25 07:10:20;;;;;;;36.65;26.35;;;16.90;99.90;;;;;;4749448;29;20127;-84
2021/07/25 07:12:48;;;;;;;34.35;25.35;;;16.90;99.90;;;;;;4762372;29;20060;-85
2021/07/25 07:15:16;;;;;;;37.03;25.75;;;17.00;99.90;;;;;;4750820;29;20052;-85
2021/07/25 07:17:43;;;;;;;32.90;22.58;;;17.00;99.90;;;;;;4765606;29;20079;-85
2021/07/25 07:20:12;;;;;;;25.73;21.42;;;17.00;99.90;;;;;;4750849;29;20072;-85
2021/07/25 07:22:39;;;;;;;27.55;21.42;;;17.10;99.90;;;;;;4767610;29;20120;-85
2021/07/25 07:25:07;;;;;;;27.08;21.70;;;17.20;99.90;;;;;;4764347;29;20060;-85
2021/07/25 07:27:35;;;;;;;27.85;22.02;;;17.20;99.90;;;;;;4765228;29;20047;-85
2021/07/25 07:30:03;;;;;;;26.92;21.45;;;17.30;99.90;;;;;;4761640;29;20563;-84
2021/07/25 07:32:30;;;;;;;29.30;23.60;;;17.40;99.90;;;;;;4765011;29;20386;-84
2021/07/25 07:34:57;;;;;;;28.80;23.15;;;17.50;99.90;;;;;;4748963;29;20117;-84
2021/07/25 07:37:24;;;;;;;30.88;23.17;;;17.60;99.90;;;;;;4764874;29;20070;-84
2021/07/25 07:39:52;;;;;;;29.17;22.90;;;17.70;99.90;;;;;;4766479;29;20068;-84
2021/07/25 07:42:19;;;;;;;27.45;22.50;;;17.80;99.90;;;;;;4780127;29;20056;-86
2021/07/25 07:44:46;;;;;;;29.45;22.73;;;17.90;99.90;;;;;;4767236;29;20063;-87
2021/07/25 07:47:13;;;;;;;26.30;22.58;;;17.90;99.90;;;;;;4764963;29;20502;-85
2021/07/25 07:49:40;;;;;;;29.23;23.83;;;18.00;99.90;;;;;;4776767;29;20082;-85
2021/07/25 07:52:08;;;;;;;25.70;22.13;;;18.00;99.90;;;;;;4769453;29;20055;-85
2021/07/25 07:54:35;;;;;;;28.87;20.33;;;18.00;99.90;;;;;;4766119;29;20055;-85
2021/07/25 07:57:02;;;;;;;23.27;19.17;;;18.00;99.90;;;;;;4770079;29;20402;-84
2021/07/25 07:59:29;;;;;;;24.55;19.35;;;18.00;99.90;;;;;;4767990;29;20044;-85
2021/07/25 08:01:57;;;;;;;25.77;19.67;;;18.10;99.90;;;;;;4782832;29;20072;-88
2021/07/25 08:04:25;;;;;;;;;;;18.20;99.90;;;;;;4767883;29;20048;-88
2021/07/25 08:06:52;;;;;;;23.63;19.42;;;18.20;99.90;;;;;;4763752;29;19930;-87
2021/07/25 08:09:19;;;;;;;24.85;19.80;;;18.30;99.90;;;;;;4755905;29;20055;-88
2021/07/25 08:11:46;;;;;;;22.55;19.80;;;18.30;99.90;;;;;;4756373;29;20063;-88
2021/07/25 08:14:22;;;;;;;25.73;19.02;;;18.40;99.90;;;;;;4757557;29;20127;-91
2021/07/25 08:16:53;;;;;;;21.75;18.83;;;18.50;99.90;;;;;;4773101;29;20055;-87
2021/07/25 08:19:20;;;;;;;21.60;18.38;;;18.60;99.90;;;;;;4767335;29;20391;-86
2021/07/25 08:21:47;;;;;;;18.95;17.05;;;18.70;99.90;;;;;;4745551;30;20491;-87
2021/07/25 08:24:14;;;;;;;25.25;19.38;;;18.80;99.90;;;;;;4768213;29;20052;-87
2021/07/25 08:26:41;;;;;;;22.13;17.80;;;18.90;99.90;;;;;;4768142;29;20087;-87
2021/07/25 08:29:11;;;;;;;21.33;18.77;;;19.00;99.90;;;;;;4755576;29;20048;-88
2021/07/25 08:31:38;;;;;;;21.23;16.50;;;19.00;99.90;;;;;;4770274;29;20056;-87
2021/07/25 08:34:05;;;;;;;21.27;15.82;;;19.00;99.90;;;;;;4769157;29;20058;-87
2021/07/25 08:36:32;;;;;;;20.10;17.77;;;19.00;99.90;;;;;;4765166;29;20054;-88
2021/07/25 08:39:00;;;;;;;18.85;16.88;;;19.00;99.90;;;;;;4750916;30;20055;-87
2021/07/25 08:42:01;;;;;;;19.88;15.05;;;19.00;99.90;;;;;;4744907;29;20051;-87
2021/07/25 08:44:49;;;;;;;20.58;15.73;;;19.00;99.90;;;;;;4781569;29;20055;-88
2021/07/25 08:47:36;;;;;;;17.25;15.35;;;19.00;99.90;;;;;;4767144;29;20451;-87
2021/07/25 08:50:03;;;;;;;21.58;16.00;;;19.10;99.90;;;;;;4748221;30;20075;-87
2021/07/25 08:52:38;;;;;;;19.55;17.27;;;19.10;99.90;;;;;;4786215;29;20055;-87
2021/07/25 08:55:08;;;;;;;20.50;17.42;;;19.10;99.90;;;;;;4781175;29;20090;-87
2021/07/25 08:57:39;;;;;;;21.77;17.00;;;19.10;99.90;;;;;;4762378;30;20051;-87
2021/07/25 09:00:08;;;;;;;21.15;18.95;;;19.00;99.90;;;;;;4778213;29;20047;-87
2021/07/25 09:02:36;;;;;;;21.95;18.17;;;19.00;99.90;;;;;;4766562;29;20383;-87
2021/07/25 09:05:04;;;;;;;19.20;16.25;;;18.90;99.90;;;;;;4781875;29;20048;-89
2021/07/25 09:07:32;;;;;;;18.48;16.52;;;18.90;99.90;;;;;;4751626;30;20056;-87
2021/07/25 09:10:07;;;;;;;20.77;15.17;;;18.90;99.90;;;;;;4753560;30;20139;-86
2021/07/25 09:12:35;;;;;;;23.20;17.73;;;18.90;99.90;;;;;;4781625;29;20371;-87
2021/07/25 09:15:15;;;;;;;20.55;16.60;;;18.90;99.90;;;;;;4767590;29;20406;-86
2021/07/25 09:17:42;;;;;;;22.42;18.88;;;18.90;99.90;;;;;;4780277;29;20568;-86
2021/07/25 09:20:19;;;;;;;19.63;17.38;;;18.80;99.90;;;;;;4752652;29;20059;-87
2021/07/25 09:22:49;;;;;;;20.17;16.15;;;18.80;99.90;;;;;;4769425;29;20052;-86
2021/07/25 09:25:22;;;;;;;16.23;14.52;;;18.90;99.90;;;;;;4780339;29;20136;-87
2021/07/25 09:28:14;;;;;;;20.50;15.68;;;18.90;99.90;;;;;;4781620;29;20059;-86
2021/07/25 09:30:41;;;;;;;18.65;15.50;;;19.10;99.90;;;;;;4767667;29;20081;-87
2021/07/25 09:33:31;;;;;;;19.60;16.00;;;19.20;99.90;;;;;;4760396;29;20048;-86
2021/07/25 09:36:16;;;;;;;21.10;16.15;;;19.30;99.90;;;;;;4780764;29;20152;-87
2021/07/25 09:38:45;;;;;;;21.00;16.23;;;19.40;99.90;;;;;;4765129;29;20052;-87
2021/07/25 09:41:18;;;;;;;20.90;16.73;;;19.40;99.90;;;;;;4752338;29;20060;-87
2021/07/25 09:43:57;;;;;;;20.23;14.93;;;19.50;99.90;;;;;;4765985;29;20679;-87
2021/07/25 09:46:24;;;;;;;16.15;14.45;;;19.50;99.90;;;;;;4745310;30;20357;-87
2021/07/25 09:48:58;;;;;;;17.95;14.07;;;19.60;99.90;;;;;;4765350;29;20154;-86
2021/07/25 09:51:25;;;;;;;16.52;14.48;;;19.60;99.90;;;;;;4765816;29;20063;-87
2021/07/25 09:53:53;;;;;;;21.67;15.73;;;19.70;99.90;;;;;;4766245;29;20525;-86
2021/07/25 09:56:23;;;;;;;16.58;13.48;;;19.80;99.90;;;;;;4766036;29;20081;-87
2021/07/25 09:58:51;;;;;;;16.00;12.75;;;20.10;99.90;;;;;;4777892;29;20556;-87
2021/07/25 10:01:37;;;;;;;14.20;12.38;;;20.20;99.90;;;;;;4766982;29;20059;-87
2021/07/25 10:04:19;;;;;;;16.02;12.80;;;20.20;99.90;;;;;;4779510;29;20109;-87
2021/07/25 10:06:54;;;;;;;14.85;12.70;;;20.30;99.90;;;;;;4750265;30;20094;-87
2021/07/25 10:09:23;;;;;;;15.15;13.57;;;20.30;99.90;;;;;;4757863;29;20487;-87
2021/07/25 10:11:54;;;;;;;;;;;20.50;99.90;;;;;;4767069;29;20513;-87
2021/07/25 10:14:21;;;;;;;14.60;12.95;;;20.60;99.90;;;;;;4763462;29;19933;-88
2021/07/25 10:16:52;;;;;;;15.32;13.25;;;20.80;99.90;;;;;;4761605;29;20063;-94
2021/07/25 10:22:15;;;;;;;16.38;13.75;;;21.10;99.90;;;;;;5545875;24;20047;-91
2021/07/25 10:25:46;;;;;;;;;;;;;;;;;;;;;
2021/07/25 10:28:30;;;;;;;17.00;14.00;;;21.00;99.90;;;;;;4748513;29;20142;-92
2021/07/25 10:31:20;;;;;;;;;;;;;;;;;;;;;
2021/07/25 10:59:07;;;;;;;17.40;15.70;;;22.00;99.90;;;;;;5444557;24;20529;-96
2021/07/25 11:02:44;;;;;;;;;;;;;;;;;;;;;
2021/07/25 11:05:54;;;;;;;18.48;15.63;;;22.00;99.90;;;;;;4700013;30;20045;-88
2021/07/25 11:19:51;;;;;;;16.27;14.43;;;22.10;99.90;;;;;;4814849;29;20042;-88
2021/07/25 11:22:46;;;;;;;17.67;15.20;;;22.10;99.90;;;;;;4812396;29;20055;-88
2021/07/25 11:25:27;;;;;;;17.38;15.55;;;22.00;99.90;;;;;;4812653;29;20105;-89
2021/07/25 11:27:54;;;;;;;19.80;15.65;;;22.00;99.90;;;;;;4813953;29;20141;-88
2021/07/25 11:30:48;;;;;;;19.73;15.52;;;22.00;99.90;;;;;;4816646;29;20061;-89
2021/07/25 11:33:40;;;;;;;18.80;15.90;;;21.90;99.90;;;;;;4804305;29;20435;-89
2021/07/25 11:36:08;;;;;;;18.73;15.05;;;21.90;99.90;;;;;;4814830;29;20129;-88
2021/07/25 11:38:39;;;;;;;17.20;15.02;;;21.90;99.90;;;;;;4792768;29;20050;-90
2021/07/25 11:41:07;;;;;;;19.10;16.90;;;21.90;99.90;;;;;;4817835;29;20046;-89
2021/07/25 11:43:51;;;;;;;22.38;18.65;;;21.80;99.90;;;;;;4792418;29;20051;-89
2021/07/25 11:46:35;;;;;;;20.17;17.67;;;21.60;99.90;;;;;;4816289;29;20054;-89
2021/07/25 11:49:17;;;;;;;23.88;17.67;;;21.60;99.90;;;;;;4817533;29;20051;-88
2021/07/25 11:52:00;;;;;;;22.35;17.35;;;21.60;99.90;;;;;;4828481;29;20401;-89
2021/07/25 11:54:30;;;;;;;20.95;15.68;;;21.70;99.90;;;;;;4812949;29;20043;-88
2021/07/25 11:57:02;;;;;;;18.95;15.02;;;21.90;99.90;;;;;;4802767;29;20058;-88
2021/07/25 11:59:46;;;;;;;19.60;12.68;;;22.00;99.90;;;;;;4792940;29;20074;-89
2021/07/25 12:02:20;;;;;;;17.17;14.07;;;22.20;99.90;;;;;;4815188;29;20069;-89
2021/07/25 12:04:48;;;;;;;19.00;14.57;;;22.40;99.90;;;;;;4812868;29;20107;-88
2021/07/25 12:07:24;;;;;;;16.67;14.02;;;22.40;99.90;;;;;;4807248;29;20057;-90
2021/07/25 12:10:03;;;;;;;14.70;12.43;;;22.50;99.90;;;;;;4813589;29;20062;-88
2021/07/25 12:12:37;;;;;;;;;;;22.60;99.90;;;;;;4796107;29;20125;-89
2021/07/25 12:15:10;;;;;;;14.02;12.27;;;22.70;99.90;;;;;;4798089;29;19944;-88
2021/07/25 12:17:44;;;;;;;15.00;13.57;;;22.70;99.90;;;;;;4806091;29;20046;-88
2021/07/25 12:20:20;;;;;;;14.18;12.68;;;22.70;99.90;;;;;;4809098;29;20053;-88
2021/07/25 12:22:55;;;;;;;13.60;12.07;;;22.70;99.90;;;;;;4815932;29;20382;-88
2021/07/25 12:25:31;;;;;;;17.83;14.15;;;22.90;99.90;;;;;;4822844;29;20146;-88
2021/07/25 12:28:15;;;;;;;15.32;13.73;;;22.90;99.90;;;;;;4795374;29;20055;-88
2021/07/25 12:30:45;;;;;;;15.20;13.73;;;22.80;99.90;;;;;;4817948;29;20042;-88
2021/07/25 12:33:14;;;;;;;15.38;13.88;;;22.80;99.90;;;;;;4818519;29;20054;-88
2021/07/25 12:35:42;;;;;;;15.40;13.90;;;22.90;99.90;;;;;;4817021;29;20050;-88
2021/07/25 12:38:14;;;;;;;14.80;12.83;;;22.90;99.90;;;;;;4822009;29;20056;-88
2021/07/25 12:40:52;;;;;;;15.13;12.82;;;23.00;99.90;;;;;;4819598;29;20316;-88
2021/07/25 12:43:23;;;;;;;17.92;13.55;;;23.10;99.90;;;;;;4815511;29;20544;-88
2021/07/25 12:45:53;;;;;;;17.15;13.60;;;23.10;99.90;;;;;;4807305;29;20134;-88
2021/07/25 12:48:32;;;;;;;;;;;23.00;99.90;;;;;;4816793;29;20472;-89
2021/07/25 12:53:45;;;;;;;16.45;14.10;;;23.10;99.90;;;;;;4813485;29;20043;-89
2021/07/25 12:56:19;;;;;;;16.27;14.52;;;23.10;99.90;;;;;;4795255;29;20042;-89
2021/07/25 12:58:49;;;;;;;15.98;14.38;;;23.20;99.90;;;;;;4815873;29;20548;-89
2021/07/25 13:04:05;;;;;;;15.75;13.82;;;23.00;99.90;;;;;;4817554;29;20055;-89
2021/07/25 13:06:42;;;;;;;15.13;13.52;;;23.00;99.90;;;;;;4814891;29;20251;-90
2021/07/25 13:09:10;;;;;;;16.27;14.57;;;22.80;99.90;;;;;;4804382;29;20060;-89
2021/07/25 13:11:42;;;;;;;18.20;15.45;;;22.60;99.90;;;;;;4830500;29;20059;-89
2021/07/25 13:14:12;;;;;;;18.33;15.60;;;22.60;99.90;;;;;;4797077;29;20050;-89
2021/07/25 13:16:43;;;;;;;17.25;14.93;;;22.60;99.90;;;;;;4823725;29;20051;-89
2021/07/25 13:19:11;;;;;;;18.08;13.85;;;22.70;99.90;;;;;;4819736;29;20054;-88
2021/07/25 13:21:39;;;;;;;18.77;15.18;;;22.70;99.90;;;;;;4806063;29;20481;-89
2021/07/25 13:24:06;;;;;;;15.60;14.10;;;22.70;99.90;;;;;;4817166;29;20482;-88
2021/07/25 13:26:33;;;;;;;17.73;15.02;;;22.70;99.90;;;;;;4813966;29;20051;-89
2021/07/25 13:29:00;;;;;;;18.67;15.07;;;22.60;99.90;;;;;;4817763;29;20554;-89
2021/07/25 13:31:27;;;;;;;20.27;14.95;;;22.60;99.90;;;;;;4818802;29;20050;-89
2021/07/25 13:33:54;;;;;;;15.95;14.35;;;22.50;99.90;;;;;;4810129;29;20057;-89
2021/07/25 13:36:22;;;;;;;17.23;14.40;;;22.50;99.90;;;;;;4801512;29;20050;-89
2021/07/25 13:38:51;;;;;;;17.90;14.23;;;22.50;99.90;;;;;;4802463;29;20542;-89